Time;durP1;ratioP1;P1;durP2;ratioP2;P2;SDS_P1;SDS_P2;PMS_P1;PMS_P2;Temp;Humidity;BMP_temperature;BMP_pressure;BME280_temperature;BME280_humidity;BME280_pressure;Samples;Min_cycle;Max_cycle;Signal;HPM_P1;HPM_P2
2023/09/10 00:00:51;;;;;;;5.53;3.20;;;;;;;16.89;100.00;101172.09;5053331;28;20453;-68
2023/09/10 00:03:18;;;;;;;6.47;2.90;;;;;;;16.86;100.00;101170.00;5053312;28;20469;-68
2023/09/10 00:05:46;;;;;;;5.67;2.67;;;;;;;16.86;100.00;101176.28;5053214;28;20450;-68
2023/09/10 00:08:12;;;;;;;4.87;2.53;;;;;;;16.86;100.00;101168.06;5053281;28;20441;-68
2023/09/10 00:10:41;;;;;;;10.13;3.23;;;;;;;16.81;100.00;101167.44;5052899;28;20965;-68
2023/09/10 00:13:08;;;;;;;5.90;2.43;;;;;;;16.74;100.00;101167.97;5052876;28;20856;-68
2023/09/10 00:15:35;;;;;;;5.70;2.23;;;;;;;16.71;100.00;101165.06;5053055;28;20521;-68
2023/09/10 00:18:02;;;;;;;5.77;2.50;;;;;;;16.65;100.00;101161.72;5053501;28;20518;-68
2023/09/10 00:20:28;;;;;;;5.63;2.40;;;;;;;16.69;100.00;101172.78;5052841;28;20857;-68
2023/09/10 00:22:57;;;;;;;5.13;2.87;;;;;;;16.64;100.00;101166.38;5052732;28;20807;-68
2023/09/10 00:25:24;;;;;;;5.93;3.57;;;;;;;16.59;100.00;101160.25;5052992;28;20896;-68
2023/09/10 00:27:51;;;;;;;6.00;2.97;;;;;;;16.56;100.00;101158.19;5052942;28;20462;-68
2023/09/10 00:30:17;;;;;;;4.90;2.63;;;;;;;16.57;100.00;101166.06;5052731;28;20456;-68
2023/09/10 00:32:44;;;;;;;4.57;2.90;;;;;;;16.56;100.00;101164.47;5052728;28;20955;-69
2023/09/10 00:35:11;;;;;;;5.67;2.67;;;;;;;16.51;100.00;101161.09;5052961;28;20470;-69
2023/09/10 00:37:37;;;;;;;5.40;2.83;;;;;;;16.50;100.00;101160.28;5053022;28;20458;-69
2023/09/10 00:40:06;;;;;;;5.80;3.13;;;;;;;16.50;100.00;101156.75;5052896;28;20452;-68
2023/09/10 00:42:33;;;;;;;5.20;2.70;;;;;;;16.51;100.00;101150.97;5052949;28;20442;-68
2023/09/10 00:44:59;;;;;;;6.20;2.40;;;;;;;16.50;100.00;101159.50;5052838;28;20545;-69
2023/09/10 00:47:26;;;;;;;4.90;2.43;;;;;;;16.45;100.00;101167.88;5052821;28;20455;-69
2023/09/10 00:49:53;;;;;;;6.43;3.13;;;;;;;16.42;100.00;101165.78;5052812;28;20525;-68
2023/09/10 00:52:21;;;;;;;4.60;2.43;;;;;;;16.35;100.00;101164.38;5052826;28;20522;-68
2023/09/10 00:54:49;;;;;;;5.20;2.40;;;;;;;16.33;100.00;101166.59;5053037;28;20450;-68
2023/09/10 00:57:17;;;;;;;4.77;2.20;;;;;;;16.28;100.00;101174.97;5056047;28;20545;-68
2023/09/10 00:59:44;;;;;;;5.90;2.87;;;;;;;16.25;100.00;101170.19;5056343;28;20579;-68
2023/09/10 01:02:13;;;;;;;5.77;3.00;;;;;;;16.25;100.00;101170.19;5056370;28;20438;-68
2023/09/10 01:04:40;;;;;;;4.83;3.07;;;;;;;16.25;100.00;101163.91;5055994;28;20812;-68
2023/09/10 01:07:07;;;;;;;5.40;3.00;;;;;;;16.19;100.00;101167.94;5056234;28;20802;-68
2023/09/10 01:09:34;;;;;;;6.93;3.37;;;;;;;16.20;100.00;101162.13;5056211;28;20465;-68
2023/09/10 01:12:10;;;;;;;9.63;3.83;;;;;;;16.20;100.00;101164.06;5055965;28;20456;-68
2023/09/10 01:14:46;;;;;;;6.67;3.20;;;;;;;16.14;100.00;101163.44;5056151;28;20909;-68
2023/09/10 01:17:16;;;;;;;4.17;2.43;;;;;;;16.14;100.00;101163.44;5056153;28;20532;-68
2023/09/10 01:20:09;;;;;;;5.27;2.30;;;;;;;16.08;100.00;101168.28;5055913;28;20562;-68
2023/09/10 01:22:45;;;;;;;9.20;2.67;;;;;;;16.00;100.00;101173.75;5028158;28;20508;-68
2023/09/10 01:25:14;;;;;;;5.07;2.67;;;;;;;15.97;100.00;101168.94;5055911;28;20513;-68
2023/09/10 01:27:43;;;;;;;5.77;3.60;;;;;;;15.95;100.00;101174.72;5055492;28;20465;-68
2023/09/10 01:30:10;;;;;;;5.50;3.20;;;;;;;15.93;100.00;101176.16;5055781;28;20434;-68
2023/09/10 01:32:45;;;;;;;8.50;3.47;;;;;;;15.92;100.00;101177.28;5055698;28;20481;-68
2023/09/10 01:35:17;;;;;;;7.87;3.37;;;;;;;15.94;100.00;101175.03;5055895;28;20460;-68
2023/09/10 01:37:50;;;;;;;4.80;2.87;;;;;;;15.87;100.00;101176.31;5055696;28;20455;-68
2023/09/10 01:40:25;;;;;;;5.40;2.90;;;;;;;15.86;100.00;101174.72;5055753;28;20509;-69
2023/09/10 01:42:52;;;;;;;5.40;2.50;;;;;;;15.86;100.00;101180.19;5055366;28;20492;-69
2023/09/10 01:45:19;;;;;;;5.27;2.40;;;;;;;15.82;100.00;101168.28;5055570;28;20442;-68
2023/09/10 01:47:47;;;;;;;6.37;3.33;;;;;;;15.85;100.00;101177.78;5055435;28;20465;-68
2023/09/10 01:50:14;;;;;;;5.57;3.40;;;;;;;15.79;100.00;101179.06;5055514;28;20525;-68
2023/09/10 01:52:40;;;;;;;8.03;2.63;;;;;;;15.79;100.00;101179.84;5055589;28;20446;-68
2023/09/10 01:55:08;;;;;;;4.90;3.60;;;;;;;15.72;100.00;101174.09;5055417;28;20444;-69
2023/09/10 01:57:36;;;;;;;11.50;3.43;;;;;;;15.71;100.00;101177.94;5054965;28;21026;-69
2023/09/10 02:00:05;;;;;;;4.87;2.90;;;;;;;15.64;100.00;101178.41;5055228;28;20482;-69
2023/09/10 02:02:31;;;;;;;6.53;3.37;;;;;;;15.67;100.00;101184.34;5055297;28;20449;-69
2023/09/10 02:04:59;;;;;;;5.50;2.77;;;;;;;15.69;100.00;101179.38;5055136;28;20446;-69
2023/09/10 02:07:25;;;;;;;8.07;3.17;;;;;;;15.67;100.00;101179.72;5054275;28;20462;-69
2023/09/10 02:09:52;;;;;;;8.23;3.60;;;;;;;15.60;100.00;101185.59;5054866;28;20945;-69
2023/09/10 02:12:17;;;;;;;5.50;3.73;;;;;;;15.59;100.00;101175.03;5055444;28;20442;-69
2023/09/10 02:14:48;;;;;;;6.90;3.47;;;;;;;15.60;100.00;101179.34;5054997;28;20442;-69
2023/09/10 02:17:15;;;;;;;5.63;2.87;;;;;;;15.54;100.00;101172.44;5055269;28;20316;-69
2023/09/10 02:19:41;;;;;;;5.67;3.57;;;;;;;15.55;100.00;101176.78;5054523;28;21076;-69
2023/09/10 02:22:08;;;;;;;6.63;3.60;;;;;;;15.55;100.00;101174.03;5054570;28;20470;-69
2023/09/10 02:24:34;;;;;;;9.00;3.20;;;;;;;15.58;100.00;101167.94;5054785;28;20442;-69
2023/09/10 02:27:01;;;;;;;4.73;2.53;;;;;;;15.58;100.00;101168.75;5054371;28;20457;-69
2023/09/10 02:29:28;;;;;;;6.17;3.37;;;;;;;15.53;100.00;101170.81;5054762;28;20434;-69
2023/09/10 02:31:57;;;;;;;8.10;3.30;;;;;;;15.49;100.00;101170.66;5054665;28;20438;-69
2023/09/10 02:34:23;;;;;;;7.13;3.80;;;;;;;15.48;100.00;101168.25;5054637;28;20931;-69
2023/09/10 02:36:50;;;;;;;5.03;3.07;;;;;;;15.49;100.00;101170.66;5054575;28;20545;-69
2023/09/10 02:39:17;;;;;;;8.80;4.50;;;;;;;15.41;100.00;101160.53;5054193;28;20513;-69
2023/09/10 02:41:44;;;;;;;8.13;3.40;;;;;;;15.37;100.00;101165.84;5054542;28;20556;-69
2023/09/10 02:44:11;;;;;;;6.63;3.87;;;;;;;15.34;100.00;101177.38;5054523;28;20451;-69
2023/09/10 02:46:37;;;;;;;8.73;3.80;;;;;;;15.34;100.00;101173.84;5054256;28;20466;-69
2023/09/10 02:49:05;;;;;;;5.10;2.70;;;;;;;15.30;100.00;101168.22;5054162;28;20525;-68
2023/09/10 02:51:32;;;;;;;6.20;3.90;;;;;;;15.31;100.00;101174.47;5054276;28;20453;-68
2023/09/10 02:53:59;;;;;;;5.10;2.97;;;;;;;15.32;100.00;101171.44;5053933;28;20457;-68
2023/09/10 02:56:25;;;;;;;6.03;2.97;;;;;;;15.33;100.00;101164.88;5053827;28;20986;-69
2023/09/10 02:58:52;;;;;;;12.33;3.37;;;;;;;15.30;100.00;101176.41;5053988;28;20488;-69
2023/09/10 03:01:18;;;;;;;4.60;2.73;;;;;;;15.33;100.00;101181.25;5054111;28;20438;-69
2023/09/10 03:03:45;;;;;;;6.67;4.27;;;;;;;15.23;100.00;101178.81;5054045;28;20517;-69
2023/09/10 03:06:13;;;;;;;6.87;3.00;;;;;;;15.23;100.00;101183.44;5053543;28;20462;-68
2023/09/10 03:08:42;;;;;;;7.50;3.43;;;;;;;15.18;100.00;101180.88;5053668;28;20438;-69
2023/09/10 03:11:09;;;;;;;5.90;3.53;;;;;;;15.21;100.00;101174.78;5053935;28;20449;-69
2023/09/10 03:13:36;;;;;;;3.73;2.27;;;;;;;15.18;100.00;101175.41;5053930;28;20516;-69
2023/09/10 03:16:02;;;;;;;5.87;3.03;;;;;;;15.13;100.00;101173.63;5053473;28;21080;-69
2023/09/10 03:18:29;;;;;;;8.20;3.57;;;;;;;15.10;100.00;101177.03;5053651;28;20504;-69
2023/09/10 03:20:55;;;;;;;8.27;3.73;;;;;;;15.08;100.00;101171.06;5053746;28;20442;-68
2023/09/10 03:23:23;;;;;;;6.00;3.20;;;;;;;15.06;100.00;101173.31;5053774;28;20526;-68
2023/09/10 03:25:50;;;;;;;5.70;3.50;;;;;;;15.10;100.00;101172.38;5053632;28;20462;-68
2023/09/10 03:28:17;;;;;;;6.43;3.60;;;;;;;15.00;100.00;101169.09;5053749;28;20445;-70
2023/09/10 03:30:43;;;;;;;7.73;3.50;;;;;;;14.92;100.00;101167.97;5054003;28;20451;-69
2023/09/10 03:33:10;;;;;;;7.93;4.87;;;;;;;14.94;100.00;101171.19;5053552;28;20444;-69
2023/09/10 03:35:36;;;;;;;6.10;3.57;;;;;;;14.89;100.00;101166.66;5053856;28;20453;-69
2023/09/10 03:38:03;;;;;;;6.03;3.10;;;;;;;14.87;100.00;101168.94;5053438;28;20948;-69
2023/09/10 03:40:31;;;;;;;5.97;3.07;;;;;;;14.80;100.00;101157.66;5053659;28;20564;-69
2023/09/10 03:42:58;;;;;;;6.27;3.23;;;;;;;14.74;100.00;101156.19;5054144;28;20446;-69
2023/09/10 03:45:25;;;;;;;6.40;3.07;;;;;;;14.83;100.00;101161.66;5054600;28;20454;-69
2023/09/10 03:47:51;;;;;;;5.80;3.60;;;;;;;14.87;100.00;101159.91;5053477;28;20524;-69
2023/09/10 03:50:18;;;;;;;6.87;4.00;;;;;;;14.79;100.00;101168.88;5053834;28;20525;-68
2023/09/10 03:52:44;;;;;;;6.83;3.33;;;;;;;14.74;100.00;101158.09;5053124;28;20453;-69
2023/09/10 03:55:11;;;;;;;6.70;3.57;;;;;;;14.72;100.00;101163.88;5053445;28;20429;-66
2023/09/10 03:57:39;;;;;;;8.30;3.83;;;;;;;14.73;100.00;101159.22;5052949;28;21053;-66
2023/09/10 04:00:08;;;;;;;5.70;3.47;;;;;;;14.69;100.00;101158.25;5053208;28;20593;-67
2023/09/10 04:02:35;;;;;;;5.60;3.10;;;;;;;14.69;100.00;101160.97;5053026;28;20442;-66
2023/09/10 04:05:01;;;;;;;5.53;3.10;;;;;;;14.65;100.00;101163.50;5052975;28;20446;-66
2023/09/10 04:07:28;;;;;;;6.47;3.53;;;;;;;14.57;100.00;101156.13;5053215;28;20494;-66
2023/09/10 04:09:54;;;;;;;6.03;3.30;;;;;;;14.59;100.00;101170.22;5053243;28;20436;-66
2023/09/10 04:12:21;;;;;;;6.50;3.40;;;;;;;14.60;100.00;101171.84;5053276;28;20533;-67
2023/09/10 04:14:49;;;;;;;4.50;3.00;;;;;;;14.55;100.00;101169.25;5052810;28;20442;-67
2023/09/10 04:17:17;;;;;;;6.30;3.60;;;;;;;14.54;100.00;101173.91;5053041;28;20833;-67
2023/09/10 04:19:43;;;;;;;8.10;4.43;;;;;;;14.54;100.00;101163.00;5052998;28;20477;-67
2023/09/10 04:22:10;;;;;;;4.97;3.03;;;;;;;14.52;100.00;101167.13;5053124;28;20862;-66
2023/09/10 04:24:37;;;;;;;4.60;2.70;;;;;;;14.48;100.00;101166.16;5053150;28;20537;-67
2023/09/10 04:27:04;;;;;;;7.63;3.30;;;;;;;14.56;100.00;101173.56;5052694;28;20985;-67
2023/09/10 04:29:31;;;;;;;5.20;3.37;;;;;;;14.54;100.00;101167.66;5053067;28;20521;-66
2023/09/10 04:31:59;;;;;;;6.20;3.10;;;;;;;14.46;100.00;101168.38;5056407;28;20534;-66
2023/09/10 04:34:25;;;;;;;5.43;3.27;;;;;;;14.46;100.00;101177.34;5056566;28;20929;-66
2023/09/10 04:36:52;;;;;;;5.97;3.53;;;;;;;14.53;100.00;101183.19;5056869;28;20564;-67
2023/09/10 04:39:19;;;;;;;5.30;3.03;;;;;;;14.47;100.00;101178.94;5057030;28;20863;-66
2023/09/10 04:41:45;;;;;;;5.80;3.27;;;;;;;14.47;100.00;101178.94;5057159;28;20476;-67
2023/09/10 04:44:12;;;;;;;5.97;3.40;;;;;;;14.45;100.00;101177.66;5056440;28;21029;-66
2023/09/10 04:46:39;;;;;;;6.13;2.93;;;;;;;14.46;100.00;101179.28;5056619;28;20549;-66
2023/09/10 04:49:07;;;;;;;8.13;2.80;;;;;;;14.48;100.00;101177.06;5056654;28;20521;-67
2023/09/10 04:51:33;;;;;;;4.30;2.53;;;;;;;14.42;100.00;101181.81;5056551;28;20473;-66
2023/09/10 04:54:00;;;;;;;16.43;4.33;;;;;;;14.42;100.00;101183.75;5056257;28;20478;-67
2023/09/10 04:56:27;;;;;;;5.33;2.60;;;;;;;14.39;100.00;101187.91;5056477;28;20458;-67
2023/09/10 04:58:53;;;;;;;4.70;2.87;;;;;;;14.36;100.00;101186.59;5056461;28;20438;-67
2023/09/10 05:01:20;;;;;;;5.00;2.97;;;;;;;14.42;100.00;101189.19;5056421;28;20434;-66
2023/09/10 05:03:46;;;;;;;6.33;3.10;;;;;;;14.43;100.00;101185.34;5056319;28;20609;-66
2023/09/10 05:06:14;;;;;;;6.57;3.63;;;;;;;14.43;100.00;101198.97;5056133;28;20545;-66
2023/09/10 05:08:41;;;;;;;5.03;2.87;;;;;;;14.41;100.00;101201.22;5056413;28;20460;-66
2023/09/10 05:11:08;;;;;;;5.27;3.20;;;;;;;14.45;100.00;101199.47;5056288;28;20525;-66
2023/09/10 05:13:34;;;;;;;5.77;2.90;;;;;;;14.46;98.50;101201.06;5056119;28;20450;-66
2023/09/10 05:16:01;;;;;;;5.80;3.10;;;;;;;14.43;96.33;101204.41;5056021;28;20549;-66
2023/09/10 05:18:28;;;;;;;6.90;3.23;;;;;;;14.35;96.43;101198.63;5056069;28;20445;-66
2023/09/10 05:20:54;;;;;;;6.07;3.10;;;;;;;14.40;96.44;101203.13;5055624;28;20576;-66
2023/09/10 05:23:24;;;;;;;5.80;3.60;;;;;;;14.33;97.70;101200.84;5055944;28;20464;-66
2023/09/10 05:25:51;;;;;;;5.30;3.10;;;;;;;14.31;99.24;101202.28;5055896;28;20468;-66
2023/09/10 05:28:17;;;;;;;6.27;3.40;;;;;;;14.37;100.00;101204.56;5055996;28;20529;-66
2023/09/10 05:30:44;;;;;;;4.50;2.90;;;;;;;14.43;100.00;101204.41;5055580;28;20496;-66
2023/09/10 05:33:11;;;;;;;6.40;3.17;;;;;;;14.54;100.00;101200.34;5055749;28;20535;-66
2023/09/10 05:35:37;;;;;;;5.60;3.73;;;;;;;14.59;100.00;101202.94;5056188;28;20469;-68
2023/09/10 05:38:05;;;;;;;6.00;3.70;;;;;;;14.60;100.00;101205.34;5055471;28;20507;-67
2023/09/10 05:40:36;;;;;;;5.50;3.27;;;;;;;14.69;100.00;101201.88;5055563;28;21015;-67
2023/09/10 05:43:04;;;;;;;4.80;2.60;;;;;;;14.80;100.00;101205.94;5054374;28;20423;-67
2023/09/10 05:45:32;;;;;;;7.30;3.40;;;;;;;14.84;100.00;101204.19;5055495;28;20484;-67
2023/09/10 05:47:59;;;;;;;6.73;3.40;;;;;;;14.93;100.00;101196.06;5055582;28;20516;-67
2023/09/10 05:50:25;;;;;;;6.57;2.97;;;;;;;15.01;100.00;101198.03;5055409;28;20445;-67
2023/09/10 05:52:55;;;;;;;8.60;4.00;;;;;;;15.09;100.00;101206.19;5070494;22;20480;-69
2023/09/10 05:55:22;;;;;;;7.07;3.63;;;;;;;15.16;100.00;101205.75;5059603;28;20431;-69
2023/09/10 05:57:51;;;;;;;8.13;3.20;;;;;;;15.25;100.00;101203.84;5058848;28;20533;-68
2023/09/10 06:00:17;;;;;;;7.27;3.30;;;;;;;15.37;100.00;101204.06;5060964;28;20478;-73
2023/09/10 06:02:44;;;;;;;7.90;3.30;;;;;;;15.50;100.00;101209.72;5056128;28;20468;-70
2023/09/10 06:05:11;;;;;;;7.90;3.17;;;;;;;15.58;100.00;101206.16;5056438;28;20872;-68
2023/09/10 06:07:37;;;;;;;8.50;4.03;;;;;;;15.69;100.00;101206.69;5055418;28;20559;-69
2023/09/10 06:10:08;;;;;;;7.07;3.57;;;;;;;15.74;100.00;101212.00;5055301;28;20456;-69
2023/09/10 06:12:36;;;;;;;4.77;2.63;;;;;;;15.82;100.00;101217.47;5055294;28;20488;-69
2023/09/10 06:15:04;;;;;;;10.70;4.10;;;;;;;15.94;100.00;101210.53;5054793;28;20926;-70
2023/09/10 06:17:31;;;;;;;9.93;4.33;;;;;;;16.07;100.00;101212.31;5055041;28;20458;-69
2023/09/10 06:19:58;;;;;;;7.60;3.80;;;;;;;16.18;100.00;101210.88;5055415;28;20528;-69
2023/09/10 06:22:24;;;;;;;8.50;3.80;;;;;;;16.26;100.00;101221.00;5055357;28;20442;-69
2023/09/10 06:24:51;;;;;;;5.37;3.00;;;;;;;16.35;100.00;101212.78;5055120;28;20444;-70
2023/09/10 06:27:17;;;;;;;8.50;4.40;;;;;;;16.47;100.00;101210.19;5055169;28;20554;-69
2023/09/10 06:29:44;;;;;;;6.33;3.20;;;;;;;16.57;100.00;101219.97;5054952;28;20512;-71
2023/09/10 06:32:12;;;;;;;8.27;3.40;;;;;;;16.67;100.00;101219.63;5054926;28;20443;-70
2023/09/10 06:34:39;;;;;;;7.93;3.90;;;;;;;16.75;100.00;101223.50;5054875;28;20521;-70
2023/09/10 06:37:06;;;;;;;8.27;3.67;;;;;;;16.87;100.00;101226.34;5055135;28;20892;-68
2023/09/10 06:39:38;;;;;;;7.33;3.30;;;;;;;17.01;100.00;101223.41;5063522;28;20453;-70
2023/09/10 06:42:05;;;;;;;6.57;3.40;;;;;;;17.12;100.00;101224.63;5060965;28;20430;-69
2023/09/10 06:44:32;;;;;;;7.60;4.20;;;;;;;17.22;100.00;101234.38;5060721;28;20472;-69
2023/09/10 06:46:59;;;;;;;11.67;4.43;;;;;;;17.28;100.00;101222.13;5061984;28;20484;-69
2023/09/10 06:49:27;;;;;;;7.87;3.87;;;;;;;17.38;100.00;101233.50;5060157;28;20958;-69
2023/09/10 06:51:54;;;;;;;7.80;4.70;;;;;;;17.48;100.00;101226.03;5064287;28;20455;-69
2023/09/10 06:54:20;;;;;;;6.03;2.70;;;;;;;17.61;100.00;101225.78;5063760;28;20481;-69
2023/09/10 06:56:47;;;;;;;6.90;4.07;;;;;;;17.76;100.00;101226.38;5063956;28;20537;-69
2023/09/10 06:59:14;;;;;;;6.77;3.50;;;;;;;17.91;100.00;101228.50;5062940;28;20469;-69
2023/09/10 07:01:40;;;;;;;6.07;3.00;;;;;;;18.00;100.00;101229.22;5062739;28;20510;-69
2023/09/10 07:04:16;;;;;;;5.63;3.10;;;;;;;18.17;100.00;101233.75;5061194;28;20442;-69
2023/09/10 07:06:45;;;;;;;7.30;3.60;;;;;;;18.30;100.00;101231.88;5060937;28;20553;-69
2023/09/10 07:09:11;;;;;;;8.17;3.57;;;;;;;18.41;100.00;101238.53;5060141;28;20930;-69
2023/09/10 07:11:38;;;;;;;7.27;3.73;;;;;;;18.53;100.00;101235.81;5061566;28;20439;-69
2023/09/10 07:14:05;;;;;;;5.83;3.43;;;;;;;18.67;100.00;101241.00;5062205;28;20439;-69
2023/09/10 07:16:33;;;;;;;8.30;3.53;;;;;;;18.88;100.00;101238.22;5058349;28;20454;-71
2023/09/10 07:19:00;;;;;;;6.50;3.00;;;;;;;19.06;100.00;101247.84;5060489;28;20447;-70
2023/09/10 07:21:27;;;;;;;6.73;3.70;;;;;;;19.19;100.00;101253.34;5061039;28;20907;-70
2023/09/10 07:23:55;;;;;;;5.37;2.97;;;;;;;19.31;100.00;101250.63;5061291;28;20477;-70
2023/09/10 07:26:21;;;;;;;6.60;3.77;;;;;;;19.44;100.00;101251.41;5062281;28;20534;-70
2023/09/10 07:28:48;;;;;;;5.90;2.93;;;;;;;19.52;100.00;101256.78;5061982;28;20477;-70
2023/09/10 07:31:15;;;;;;;6.63;3.80;;;;;;;19.65;99.55;101252.09;5060915;28;20469;-70
2023/09/10 07:33:41;;;;;;;8.30;3.97;;;;;;;19.87;94.08;101251.56;5062906;28;20546;-69
2023/09/10 07:36:08;;;;;;;5.40;3.00;;;;;;;20.15;89.36;101256.31;5061588;28;20489;-69
2023/09/10 07:38:34;;;;;;;6.33;3.07;;;;;;;20.48;85.32;101255.28;5060075;28;20450;-70
2023/09/10 07:41:03;;;;;;;5.90;3.20;;;;;;;20.69;83.85;101253.09;5061960;28;20553;-70
2023/09/10 07:43:29;;;;;;;5.90;3.10;;;;;;;20.81;83.49;101252.25;5061899;28;20450;-70
2023/09/10 07:45:56;;;;;;;5.90;3.47;;;;;;;20.87;83.66;101253.56;5060531;28;20564;-69
2023/09/10 07:48:23;;;;;;;6.43;2.60;;;;;;;20.96;83.87;101253.41;5060717;28;20477;-69
2023/09/10 07:50:56;;;;;;;4.97;2.80;;;;;;;21.04;80.96;101263.44;5060498;28;20526;-69
2023/09/10 07:53:22;;;;;;;5.93;2.77;;;;;;;21.15;82.28;101258.97;5058886;28;20481;-69
2023/09/10 07:55:49;;;;;;;4.60;2.43;;;;;;;21.25;80.45;101252.94;5059556;28;20484;-69
2023/09/10 07:58:17;;;;;;;5.30;2.43;;;;;;;21.31;80.42;101257.03;5058682;28;20481;-69
2023/09/10 08:00:44;;;;;;;4.60;2.30;;;;;;;21.31;79.30;101248.78;5058251;28;20573;-69
2023/09/10 08:03:12;;;;;;;5.17;2.57;;;;;;;21.44;77.76;101259.69;5058765;28;20616;-69
2023/09/10 08:05:39;;;;;;;4.37;2.10;;;;;;;21.55;76.67;101250.50;5058103;28;20497;-69
2023/09/10 08:08:06;;;;;;;4.03;1.70;;;;;;;21.61;77.07;101243.56;5060806;28;20473;-69
2023/09/10 08:10:34;;;;;;;5.00;2.60;;;;;;;21.66;77.66;101250.75;5061539;28;20922;-69
2023/09/10 08:13:03;;;;;;;4.80;2.30;;;;;;;21.75;75.83;101248.59;5061356;28;20470;-70
2023/09/10 08:15:31;;;;;;;5.10;2.17;;;;;;;21.95;72.49;101252.16;5061826;28;20434;-70
2023/09/10 08:17:58;;;;;;;4.03;2.27;;;;;;;22.06;71.66;101261.47;5060412;28;20469;-70
2023/09/10 08:20:25;;;;;;;7.77;2.67;;;;;;;22.16;72.76;101266.44;5060562;28;20489;-70
2023/09/10 08:22:52;;;;;;;5.50;2.27;;;;;;;22.21;71.50;101259.03;5060264;28;20442;-70
2023/09/10 08:25:18;;;;;;;5.43;2.47;;;;;;;22.36;70.23;101267.22;5060268;28;20945;-70
2023/09/10 08:27:45;;;;;;;6.20;2.70;;;;;;;22.57;68.00;101258.53;5060176;28;20516;-69
2023/09/10 08:30:12;;;;;;;4.67;2.43;;;;;;;22.77;68.21;101259.31;5061344;28;20529;-70
2023/09/10 08:32:40;;;;;;;4.70;2.27;;;;;;;22.83;71.04;101246.78;5059339;28;20529;-70
2023/09/10 08:35:08;;;;;;;4.63;2.50;;;;;;;22.91;70.67;101253.25;5061028;28;20446;-72
2023/09/10 08:37:34;;;;;;;4.03;2.10;;;;;;;23.04;68.54;101262.97;5060865;28;20462;-71
2023/09/10 08:40:01;;;;;;;4.50;2.43;;;;;;;23.10;68.21;101255.94;5056541;28;20446;-70
2023/09/10 08:42:37;;;;;;;4.07;2.07;;;;;;;23.22;68.72;101256.91;5056599;28;20464;-71
2023/09/10 08:45:07;;;;;;;4.50;2.50;;;;;;;23.38;67.21;101255.59;5055625;28;20430;-71
2023/09/10 08:47:39;;;;;;;4.83;2.40;;;;;;;23.54;68.19;101254.63;5055676;28;20561;-71
2023/09/10 08:50:09;;;;;;;4.67;2.50;;;;;;;23.73;66.99;101256.50;5055543;28;20418;-71
2023/09/10 08:52:38;;;;;;;4.67;2.47;;;;;;;23.82;66.99;101257.84;5019311;28;1099848;-69
2023/09/10 08:55:05;;;;;;;5.50;2.90;;;;;;;23.96;65.05;101250.91;5060544;28;20932;-70
2023/09/10 08:57:32;;;;;;;3.87;2.40;;;;;;;24.14;65.06;101244.41;5061797;28;20503;-71
2023/09/10 09:00:01;;;;;;;3.60;1.97;;;;;;;24.27;66.58;101253.25;5061245;28;20438;-70
2023/09/10 09:02:27;;;;;;;8.00;2.43;;;;;;;24.32;66.40;101252.91;5060252;28;20513;-69
2023/09/10 09:04:54;;;;;;;5.23;2.60;;;;;;;24.38;67.53;101250.63;5060228;28;20503;-69
2023/09/10 09:07:24;;;;;;;7.87;3.20;;;;;;;24.34;67.18;101246.97;5059327;28;20581;-69
2023/09/10 09:09:54;;;;;;;5.27;2.80;;;;;;;24.51;65.54;101254.72;5058077;28;20918;-69
2023/09/10 09:12:21;;;;;;;5.37;2.60;;;;;;;24.69;62.76;101260.44;5058006;28;20469;-69
2023/09/10 09:14:51;;;;;;;4.10;2.30;;;;;;;24.86;61.88;101254.28;5058588;28;20513;-69
2023/09/10 09:17:18;;;;;;;4.10;2.40;;;;;;;25.06;59.23;101262.38;5060522;28;20500;-69
2023/09/10 09:19:44;;;;;;;2.90;1.73;;;;;;;25.23;58.59;101247.06;5061843;28;20482;-69
2023/09/10 09:22:14;;;;;;;5.43;3.23;;;;;;;25.33;58.90;101255.47;5059585;28;20492;-69
2023/09/10 09:24:42;;;;;;;4.50;2.50;;;;;;;25.42;58.95;101260.69;5056721;28;20878;-69
2023/09/10 09:27:12;;;;;;;3.93;2.00;;;;;;;25.44;57.92;101249.97;5056592;28;20518;-69
2023/09/10 09:29:40;;;;;;;3.80;2.00;;;;;;;25.48;56.72;101255.56;5056367;28;20445;-69
2023/09/10 09:32:06;;;;;;;6.17;2.30;;;;;;;25.45;57.63;101256.31;5056640;28;20808;-69
2023/09/10 09:34:34;;;;;;;5.30;2.50;;;;;;;25.53;56.51;101258.75;5057651;28;20536;-69
2023/09/10 09:37:02;;;;;;;4.50;2.10;;;;;;;25.66;53.74;101251.69;5057131;28;20815;-69
2023/09/10 09:39:31;;;;;;;3.70;1.70;;;;;;;25.82;54.06;101250.63;5056766;28;20807;-69
2023/09/10 09:41:59;;;;;;;4.00;1.70;;;;;;;25.82;53.87;101254.22;5055599;28;20481;-69
2023/09/10 09:44:27;;;;;;;3.63;2.00;;;;;;;25.86;52.88;101255.03;5055636;28;20438;-69
2023/09/10 09:46:57;;;;;;;3.80;2.27;;;;;;;25.92;53.21;101252.66;5055529;28;20516;-70
2023/09/10 09:49:25;;;;;;;3.73;1.80;;;;;;;26.07;51.93;101247.94;5055324;28;20514;-69
2023/09/10 09:51:52;;;;;;;4.53;2.40;;;;;;;26.17;52.18;101247.22;5055787;28;20613;-72
2023/09/10 09:54:19;;;;;;;5.10;2.50;;;;;;;26.24;50.94;101258.31;5055304;28;20896;-70
2023/09/10 09:56:46;;;;;;;4.00;1.73;;;;;;;26.44;49.01;101258.03;5055619;28;20537;-70
2023/09/10 09:59:16;;;;;;;3.43;1.80;;;;;;;26.59;48.85;101251.31;5055574;28;20450;-70
2023/09/10 10:01:43;;;;;;;4.30;2.50;;;;;;;26.67;49.66;101253.69;5054972;28;21008;-70
2023/09/10 10:04:10;;;;;;;3.07;1.60;;;;;;;26.72;49.31;101255.28;5055317;28;20529;-69
2023/09/10 10:06:37;;;;;;;4.03;2.20;;;;;;;26.75;48.74;101250.94;5055277;28;20454;-70
2023/09/10 10:09:04;;;;;;;3.53;1.97;;;;;;;26.88;47.20;101249.38;5054929;28;20440;-70
2023/09/10 10:11:32;;;;;;;3.30;1.90;;;;;;;27.04;48.81;101249.75;5054853;28;20518;-70
2023/09/10 10:14:00;;;;;;;3.20;1.73;;;;;;;27.19;49.08;101244.22;5055417;28;20442;-70
2023/09/10 10:16:29;;;;;;;4.10;2.23;;;;;;;27.31;48.33;101246.56;5054924;28;21012;-70
2023/09/10 10:18:56;;;;;;;3.70;2.00;;;;;;;27.39;48.52;101237.03;5055021;28;20438;-70
2023/09/10 10:21:24;;;;;;;4.00;2.07;;;;;;;27.41;49.00;101243.78;5054618;28;20482;-70
2023/09/10 10:23:53;;;;;;;3.50;1.93;;;;;;;27.58;46.86;101252.47;5054964;28;20462;-70
2023/09/10 10:26:21;;;;;;;4.13;2.10;;;;;;;27.69;46.00;101244.09;5054527;28;20466;-70
2023/09/10 10:28:49;;;;;;;4.27;2.00;;;;;;;27.83;43.21;101247.66;5054111;28;20434;-70
2023/09/10 10:31:17;;;;;;;5.17;2.27;;;;;;;27.92;42.95;101241.66;5054791;28;20438;-70
2023/09/10 10:33:51;;;;;;;4.00;1.90;;;;;;;27.99;45.20;101235.28;5054731;28;20434;-70
2023/09/10 10:36:31;;;;;;;3.97;2.10;;;;;;;27.99;44.31;101235.28;5054714;28;20465;-70
2023/09/10 10:38:58;;;;;;;5.27;2.30;;;;;;;28.10;44.11;101241.56;5054364;28;20521;-70
2023/09/10 10:41:26;;;;;;;3.67;1.80;;;;;;;28.27;45.05;101234.31;5054195;28;21001;-70
2023/09/10 10:44:02;;;;;;;4.60;2.00;;;;;;;28.39;43.13;101234.69;5054316;28;20443;-70
2023/09/10 10:46:31;;;;;;;4.70;2.20;;;;;;;28.53;42.61;101235.78;5054432;28;20462;-70
2023/09/10 10:49:01;;;;;;;5.23;2.33;;;;;;;28.64;43.35;101233.72;5054193;28;20435;-70
2023/09/10 10:51:31;;;;;;;3.17;1.70;;;;;;;28.86;42.61;101231.53;5054455;28;20453;-70
2023/09/10 10:53:58;;;;;;;3.60;1.87;;;;;;;29.00;42.06;101230.66;5054726;28;20482;-70
2023/09/10 10:56:25;;;;;;;4.70;1.97;;;;;;;29.12;41.71;101232.94;5054124;28;20460;-70
2023/09/10 10:58:51;;;;;;;3.30;1.67;;;;;;;29.22;41.28;101236.84;5054311;28;20812;-70
2023/09/10 11:01:18;;;;;;;4.70;2.00;;;;;;;29.37;41.54;101230.72;5053772;28;20931;-70
2023/09/10 11:03:47;;;;;;;3.47;1.80;;;;;;;29.57;41.12;101232.91;5054212;28;20443;-70
2023/09/10 11:06:15;;;;;;;4.20;2.00;;;;;;;29.72;39.49;101230.75;5054051;28;20466;-70
2023/09/10 11:08:43;;;;;;;3.73;2.07;;;;;;;29.61;40.01;101236.47;5053933;28;20474;-70
2023/09/10 11:11:11;;;;;;;4.17;2.23;;;;;;;29.64;40.14;101225.25;5053939;28;20794;-70
2023/09/10 11:14:00;;;;;;;3.37;1.80;;;;;;;29.79;39.18;101223.06;5053702;28;20441;-70
2023/09/10 11:16:29;;;;;;;4.73;1.80;;;;;;;30.33;37.36;101228.00;5053793;28;20544;-70
2023/09/10 11:18:56;;;;;;;4.37;2.03;;;;;;;31.22;38.62;101232.16;5053653;28;20438;-71
2023/09/10 11:22:05;;;;;;;3.40;2.00;;;;;;;32.09;35.66;101234.84;5053606;28;20482;-70